Blythe Airport
KBLH : now visible

Airfield :











YOU CAN JOIN US ON...

 
LOGIN :

Register | Disclaimer

   EN    FR    IT 

 









Legend :    VFR   Marginal VFR   IFR   Intensive IFR   Very Intensive IFR
Visi :
Ceiling :
>= 8 km
>= 3000ft
5 to 8 km
1000 to 3000 ft
1500m to 5 km
500 to 1000 ft
800 to 1500m
200 to 500 ft
< 800m
< 200 ft
Symbols :   Thunderstorms  Fog  Heavy snow  Heavy precipitations  Wind > 20 kt






- Airport Elevation : 399 ft


KBLH - Blythe

CURRENT METAR :
  • 081852Z AUTO 20006KT 10SM SCT110 39/M02 A2986 RMK AO2 SLP103 T03941022

EXPIRED METARs :
  • 081752Z AUTO 18004KT 10SM CLR 37/M01 A2987 RMK AO2 SLP108 T03721006 10372 20228 50000
  • 081652Z AUTO 00000KT 10SM CLR 35/M01 A2988 RMK AO2 SLP112 T03501006

TAF KBLH
Valid from the 08 at 18:00 until the 09 at 18:00 UTC


081720Z 0818/0918 18005KT P6SM SKC
FM082100 20011G18KT P6SM SKC
FM090200 23008KT P6SM SKC
FM090700 VRB04KT P6SM SKC
KZLA FIR / North America



MET'MAP, your aeronautical weather chart ! - Copyright ORBIFLY December 2007 - Disclaimer

ORBIFLY MET'MAP TEAM :

Programming & Development : Alexandra Zaïnal
Concept & original design : Baudouin d'Aumeries
Assistance for programming : Marc-Olivier Méhu
Technical & hardware support : Manuel Goepfert

Contact : metmap@orbifly.com




SOURCES & CREDITS :

   NOAA       Earth
Advisory